Time;durP1;ratioP1;P1;durP2;ratioP2;P2;SDS_P1;SDS_P2;PMS_P1;PMS_P2;Temp;Humidity;BMP_temperature;BMP_pressure;BME280_temperature;BME280_humidity;BME280_pressure;Samples;Min_cycle;Max_cycle;Signal;HPM_P1;HPM_P2
2022/04/06 00:01:31;;;;;;;18.35;7.30;;;9.70;99.90;;;;;;4991655;28;20038;-71
2022/04/06 00:03:57;;;;;;;18.65;7.55;;;9.00;99.90;;;;;;5008691;28;20042;-71
2022/04/06 00:06:23;;;;;;;21.98;8.20;;;9.00;99.90;;;;;;5009212;28;20052;-71
2022/04/06 00:08:48;;;;;;;19.55;7.50;;;9.10;99.90;;;;;;5008808;28;20038;-71
2022/04/06 00:11:14;;;;;;;17.42;7.28;;;9.10;99.90;;;;;;5007937;28;20074;-72
2022/04/06 00:13:40;;;;;;;21.05;8.57;;;9.10;99.90;;;;;;4990113;28;20038;-71
2022/04/06 00:16:05;;;;;;;20.65;8.95;;;9.00;99.90;;;;;;5009051;28;20505;-71
2022/04/06 00:18:31;;;;;;;15.73;8.25;;;9.00;99.90;;;;;;4990566;28;20124;-71
2022/04/06 00:20:56;;;;;;;24.00;9.45;;;9.00;99.90;;;;;;5009235;28;20046;-72
2022/04/06 00:23:22;;;;;;;25.15;10.18;;;9.00;99.90;;;;;;5007877;28;20108;-72
2022/04/06 00:25:47;;;;;;;29.20;11.63;;;9.10;99.90;;;;;;5007455;28;20057;-72
2022/04/06 00:28:13;;;;;;;24.13;10.13;;;9.10;99.90;;;;;;5009968;28;20037;-72
2022/04/06 00:30:39;;;;;;;25.98;10.60;;;9.20;99.90;;;;;;5008090;28;20108;-71
2022/04/06 00:33:04;;;;;;;31.73;11.60;;;9.10;99.90;;;;;;5008228;28;20037;-71
2022/04/06 00:35:31;;;;;;;25.48;10.98;;;9.10;99.90;;;;;;5008241;28;20133;-70
2022/04/06 00:38:04;;;;;;;25.02;11.73;;;9.10;99.90;;;;;;5008386;28;20042;-72
2022/04/06 00:40:30;;;;;;;29.88;11.93;;;9.10;99.90;;;;;;5007152;28;20088;-71
2022/04/06 00:42:56;;;;;;;25.70;11.23;;;9.00;99.90;;;;;;5008846;28;20099;-71
2022/04/06 00:45:23;;;;;;;30.25;12.68;;;9.10;99.90;;;;;;5008298;28;20038;-71
2022/04/06 00:47:50;;;;;;;23.55;11.73;;;9.00;99.90;;;;;;4992268;28;20505;-71
2022/04/06 00:50:17;;;;;;;30.70;12.63;;;9.00;99.90;;;;;;5008583;28;20049;-71
2022/04/06 00:52:43;;;;;;;29.25;11.82;;;9.00;99.90;;;;;;5007112;28;20038;-71
2022/04/06 00:55:11;;;;;;;27.13;12.20;;;9.30;99.90;;;;;;5008160;28;20477;-72
2022/04/06 00:57:37;;;;;;;31.55;12.23;;;9.10;99.90;;;;;;5007736;28;20068;-71
2022/04/06 01:00:05;;;;;;;29.88;12.52;;;9.10;99.90;;;;;;5006959;28;20121;-71
2022/04/06 01:02:31;;;;;;;25.20;11.60;;;9.10;99.90;;;;;;5007837;28;20046;-71
2022/04/06 01:04:57;;;;;;;24.70;12.13;;;9.10;99.90;;;;;;5008647;28;20104;-71
2022/04/06 01:07:23;;;;;;;26.30;12.32;;;9.10;99.90;;;;;;4990819;28;20088;-71
2022/04/06 01:09:48;;;;;;;28.52;11.40;;;9.10;99.90;;;;;;5007323;28;20053;-71
2022/04/06 01:12:15;;;;;;;24.15;11.23;;;9.10;99.90;;;;;;5007727;28;20042;-71
2022/04/06 01:14:41;;;;;;;28.00;11.63;;;9.10;99.90;;;;;;5007012;28;20042;-71
2022/04/06 01:17:08;;;;;;;29.38;12.45;;;9.20;99.90;;;;;;4990507;28;20038;-71
2022/04/06 01:19:39;;;;;;;30.45;11.68;;;9.20;99.90;;;;;;5008428;28;20049;-71
2022/04/06 01:22:15;;;;;;;25.17;11.65;;;9.10;99.90;;;;;;5007659;28;20121;-71
2022/04/06 01:24:43;;;;;;;21.77;9.95;;;9.10;99.90;;;;;;5007909;28;20054;-71
2022/04/06 01:27:09;;;;;;;25.95;10.55;;;9.20;99.90;;;;;;5007250;28;20489;-70
2022/04/06 01:29:35;;;;;;;24.65;10.60;;;9.20;99.90;;;;;;5006896;28;20050;-71
2022/04/06 01:32:15;;;;;;;29.45;10.43;;;9.20;99.90;;;;;;5006899;28;20033;-71
2022/04/06 01:34:42;;;;;;;24.67;10.23;;;9.20;99.90;;;;;;4997038;28;20049;-71
2022/04/06 01:37:09;;;;;;;25.30;10.90;;;9.20;99.90;;;;;;5008027;28;20517;-71
2022/04/06 01:39:36;;;;;;;24.85;10.38;;;9.20;99.90;;;;;;5008030;28;20046;-71
2022/04/06 01:42:03;;;;;;;27.33;10.10;;;9.20;99.90;;;;;;5006463;28;20470;-71
2022/04/06 01:44:29;;;;;;;31.90;10.68;;;9.20;99.90;;;;;;5006455;28;20042;-71
2022/04/06 01:46:55;;;;;;;17.77;9.18;;;9.20;99.90;;;;;;4990431;28;20042;-71
2022/04/06 01:52:15;;;;;;;23.83;10.25;;;9.30;99.90;;;;;;5007432;28;20128;-71
2022/04/06 01:55:00;;;;;;;28.30;9.95;;;9.30;99.90;;;;;;5007316;28;20449;-70
2022/04/06 01:57:27;;;;;;;23.17;8.70;;;9.20;99.90;;;;;;4994020;28;20045;-71
2022/04/06 01:59:53;;;;;;;20.30;9.75;;;9.20;99.90;;;;;;5006890;28;20105;-71
2022/04/06 02:02:21;;;;;;;21.38;9.75;;;9.30;99.90;;;;;;5009992;28;20038;-71
2022/04/06 02:04:46;;;;;;;26.17;9.27;;;9.30;99.90;;;;;;4992861;28;20111;-71
2022/04/06 02:07:13;;;;;;;20.27;9.20;;;9.20;99.90;;;;;;5011787;28;20113;-71
2022/04/06 02:09:40;;;;;;;23.90;8.93;;;9.20;99.90;;;;;;5010201;28;20349;-71
2022/04/06 02:12:07;;;;;;;20.73;8.55;;;9.30;99.90;;;;;;5010698;28;20643;-71
2022/04/06 02:14:32;;;;;;;24.88;8.63;;;9.30;99.90;;;;;;4992768;28;20084;-71
2022/04/06 02:16:58;;;;;;;17.92;8.63;;;9.30;99.90;;;;;;5010484;28;20474;-71
2022/04/06 02:19:24;;;;;;;18.48;8.65;;;9.20;99.90;;;;;;5011454;28;20135;-70
2022/04/06 02:21:50;;;;;;;24.35;8.35;;;9.30;99.90;;;;;;5009815;28;20402;-73
2022/04/06 02:24:17;;;;;;;22.70;7.97;;;9.10;99.90;;;;;;4993719;28;20502;-70
2022/04/06 02:26:43;;;;;;;21.30;7.90;;;9.40;99.90;;;;;;5012789;28;20077;-69
2022/04/06 02:29:08;;;;;;;16.13;7.35;;;9.40;99.90;;;;;;4992232;28;20086;-71
2022/04/06 02:31:34;;;;;;;21.55;7.78;;;9.30;99.90;;;;;;5010530;28;20176;-70
2022/04/06 02:33:59;;;;;;;19.38;8.23;;;9.30;99.90;;;;;;5010478;28;20119;-70
2022/04/06 02:36:25;;;;;;;22.30;7.35;;;9.30;99.90;;;;;;4995183;28;20111;-71
2022/04/06 02:38:51;;;;;;;18.63;7.15;;;9.30;99.90;;;;;;5009910;28;20044;-71
2022/04/06 02:41:18;;;;;;;18.08;7.32;;;9.40;99.90;;;;;;5010801;28;20076;-71
2022/04/06 02:43:43;;;;;;;18.77;7.45;;;9.30;99.90;;;;;;5009257;28;20069;-71
2022/04/06 02:46:10;;;;;;;17.52;6.63;;;9.30;99.90;;;;;;5009675;28;20483;-71
2022/04/06 02:48:35;;;;;;;16.33;6.32;;;9.30;99.90;;;;;;5010437;28;20089;-71
2022/04/06 02:51:01;;;;;;;16.05;6.65;;;9.30;99.90;;;;;;5010475;28;20497;-71
2022/04/06 02:53:27;;;;;;;14.50;5.60;;;9.30;99.90;;;;;;4994391;28;20038;-72
2022/04/06 02:55:52;;;;;;;15.77;6.03;;;9.40;99.90;;;;;;5009932;28;20149;-71
2022/04/06 02:58:18;;;;;;;15.25;6.40;;;9.40;99.90;;;;;;5008582;28;20418;-71
2022/04/06 03:00:43;;;;;;;17.35;5.38;;;9.30;99.90;;;;;;4987953;28;20049;-71
2022/04/06 03:03:09;;;;;;;12.07;5.15;;;9.30;99.90;;;;;;4992288;28;20069;-72
2022/04/06 03:05:35;;;;;;;14.73;4.85;;;9.80;99.90;;;;;;4992603;28;20054;-72
2022/04/06 03:08:00;;;;;;;12.10;4.60;;;9.30;99.90;;;;;;5010557;28;20495;-71
2022/04/06 03:10:26;;;;;;;15.38;5.00;;;9.30;99.90;;;;;;5011849;28;20049;-71
2022/04/06 03:12:52;;;;;;;13.15;4.47;;;9.30;99.90;;;;;;4990952;28;20513;-71
2022/04/06 03:15:18;;;;;;;11.98;4.53;;;9.30;99.90;;;;;;5009451;28;20454;-71
2022/04/06 03:17:43;;;;;;;12.75;4.50;;;9.40;99.90;;;;;;5010124;28;20034;-71
2022/04/06 03:20:14;;;;;;;11.52;4.70;;;9.40;99.90;;;;;;5008898;28;20537;-72
2022/04/06 03:22:40;;;;;;;9.30;3.90;;;9.30;99.90;;;;;;5009602;28;20112;-71
2022/04/06 03:25:06;;;;;;;12.20;4.22;;;9.90;99.90;;;;;;4992800;28;20136;-71
2022/04/06 03:27:33;;;;;;;13.07;3.80;;;9.30;99.90;;;;;;5008383;28;20030;-71
2022/04/06 03:30:00;;;;;;;7.53;3.33;;;9.30;99.90;;;;;;5008563;28;20044;-71
2022/04/06 03:32:25;;;;;;;10.25;3.60;;;9.20;99.90;;;;;;4991482;28;20046;-71
2022/04/06 03:34:51;;;;;;;11.63;3.55;;;9.60;99.90;;;;;;5011402;28;20053;-71
2022/04/06 03:37:16;;;;;;;9.65;3.17;;;9.30;99.90;;;;;;4976064;28;20085;-71
2022/04/06 03:39:42;;;;;;;9.18;3.60;;;9.30;99.90;;;;;;5009245;28;20124;-71
2022/04/06 03:42:08;;;;;;;9.88;3.63;;;9.30;99.90;;;;;;5008298;28;20038;-71
2022/04/06 03:44:33;;;;;;;9.07;3.38;;;9.40;99.90;;;;;;5008577;28;20565;-71
2022/04/06 03:46:59;;;;;;;7.63;3.42;;;9.30;99.90;;;;;;5009022;28;20037;-71
2022/04/06 03:49:24;;;;;;;11.32;3.80;;;9.30;99.90;;;;;;5009557;28;20046;-71
2022/04/06 03:51:50;;;;;;;9.20;3.50;;;9.30;99.90;;;;;;5008152;28;20241;-72
2022/04/06 03:54:15;;;;;;;10.70;3.80;;;9.40;99.90;;;;;;5009731;28;20042;-71
2022/04/06 03:56:41;;;;;;;9.43;4.60;;;9.30;99.90;;;;;;5008425;28;20033;-71
2022/04/06 03:59:07;;;;;;;10.18;4.30;;;9.30;99.90;;;;;;4973972;28;20103;-71
2022/04/06 04:01:35;;;;;;;15.95;5.00;;;9.30;99.90;;;;;;4999470;28;20064;-71
2022/04/06 04:04:01;;;;;;;14.20;5.28;;;9.30;99.90;;;;;;5009743;28;20046;-70
2022/04/06 04:06:27;;;;;;;10.15;5.00;;;9.30;99.90;;;;;;5009382;28;20506;-70
2022/04/06 04:08:52;;;;;;;12.85;4.75;;;9.20;99.90;;;;;;5008268;28;20034;-71
2022/04/06 04:11:18;;;;;;;14.63;5.20;;;9.10;99.90;;;;;;4990947;28;20398;-71
2022/04/06 04:13:43;;;;;;;17.52;5.28;;;9.70;99.90;;;;;;5008154;28;20522;-71
2022/04/06 04:16:09;;;;;;;10.90;4.70;;;9.20;99.90;;;;;;4990852;28;20045;-72
2022/04/06 04:18:35;;;;;;;19.50;6.13;;;10.40;99.90;;;;;;4991362;28;20045;-72
2022/04/06 04:23:44;;;;;;;16.58;6.47;;;9.10;99.90;;;;;;5006969;28;20180;-72
2022/04/06 04:26:10;;;;;;;19.67;6.60;;;9.10;99.90;;;;;;4992243;28;20167;-72
2022/04/06 04:28:36;;;;;;;18.02;6.75;;;9.10;99.90;;;;;;5007292;28;20093;-72
2022/04/06 04:31:01;;;;;;;21.25;5.68;;;9.10;99.90;;;;;;5008008;28;20564;-72
2022/04/06 04:33:27;;;;;;;18.90;6.90;;;9.00;99.90;;;;;;4981761;28;20394;-72
2022/04/06 04:35:53;;;;;;;18.77;7.05;;;9.00;99.90;;;;;;5008285;28;20041;-72
2022/04/06 04:38:18;;;;;;;20.25;7.35;;;9.70;99.90;;;;;;5011272;28;20048;-71
2022/04/06 04:40:44;;;;;;;15.15;7.07;;;9.00;99.90;;;;;;5009753;28;20053;-72
2022/04/06 04:43:10;;;;;;;22.45;8.40;;;8.90;99.90;;;;;;4989293;28;20041;-72
2022/04/06 04:45:35;;;;;;;18.42;7.38;;;9.00;99.90;;;;;;5007782;28;20081;-72
2022/04/06 04:48:01;;;;;;;22.52;7.82;;;9.10;99.90;;;;;;5008805;28;20060;-72
2022/04/06 04:50:26;;;;;;;21.15;7.82;;;9.00;99.90;;;;;;5000035;28;20472;-72
2022/04/06 04:52:52;;;;;;;19.38;7.68;;;9.00;99.90;;;;;;5009081;28;20451;-72
2022/04/06 04:55:18;;;;;;;22.27;7.47;;;9.00;99.90;;;;;;5007479;28;20049;-71
2022/04/06 04:57:44;;;;;;;19.42;7.22;;;9.00;99.90;;;;;;4990324;28;20124;-71
2022/04/06 05:00:11;;;;;;;21.67;7.75;;;9.00;99.90;;;;;;4989157;28;20041;-71
2022/04/06 05:02:39;;;;;;;19.33;8.27;;;9.10;99.90;;;;;;4990304;28;20386;-71
2022/04/06 05:05:09;;;;;;;24.10;8.50;;;9.10;99.90;;;;;;4990081;28;20050;-71
2022/04/06 05:07:37;;;;;;;20.60;8.05;;;9.10;99.90;;;;;;4989584;28;20093;-72
2022/04/06 05:10:07;;;;;;;16.15;7.00;;;9.10;99.90;;;;;;5007858;28;20054;-72
2022/04/06 05:12:33;;;;;;;18.50;7.60;;;9.10;99.90;;;;;;5006640;28;20509;-72
2022/04/06 05:14:59;;;;;;;18.88;7.13;;;9.10;99.90;;;;;;4989619;28;20108;-72
2022/04/06 05:17:26;;;;;;;21.52;7.25;;;9.10;99.90;;;;;;4990079;28;20058;-72
2022/04/06 05:19:52;;;;;;;18.23;6.47;;;9.10;99.90;;;;;;4989051;28;20042;-72
2022/04/06 05:22:18;;;;;;;15.98;6.53;;;9.10;99.90;;;;;;5007710;28;20386;-72
2022/04/06 05:24:43;;;;;;;20.95;6.95;;;9.10;99.90;;;;;;5007347;28;20058;-72
2022/04/06 05:27:09;;;;;;;17.17;6.75;;;9.10;99.90;;;;;;5006290;28;20137;-72
2022/04/06 05:29:35;;;;;;;18.80;6.00;;;9.90;99.90;;;;;;4974404;28;20042;-71
2022/04/06 05:32:00;;;;;;;21.83;8.00;;;9.00;99.90;;;;;;5009784;28;20060;-72
2022/04/06 05:34:26;;;;;;;19.88;6.63;;;9.00;99.90;;;;;;4989502;28;20041;-71
2022/04/06 05:36:55;;;;;;;19.98;6.72;;;9.20;99.90;;;;;;5010716;28;20044;-71
2022/04/06 05:39:21;;;;;;;17.63;6.75;;;8.90;99.90;;;;;;5011548;28;20041;-71
2022/04/06 05:41:47;;;;;;;23.55;7.93;;;9.20;99.90;;;;;;4992114;28;20112;-71
2022/04/06 05:44:12;;;;;;;20.75;6.88;;;8.90;99.90;;;;;;5010880;28;20458;-72
2022/04/06 05:46:38;;;;;;;23.50;7.60;;;8.80;99.90;;;;;;5010335;28;20114;-72
2022/04/06 05:49:03;;;;;;;25.38;8.57;;;8.90;99.90;;;;;;5010884;28;20137;-72
2022/04/06 05:51:29;;;;;;;22.08;8.40;;;8.80;99.90;;;;;;5012593;28;20513;-72
2022/04/06 05:53:55;;;;;;;21.55;7.55;;;8.80;99.90;;;;;;5010458;28;20042;-71
2022/04/06 05:56:20;;;;;;;15.68;6.60;;;8.80;99.90;;;;;;5011149;28;20172;-70
2022/04/06 05:58:46;;;;;;;20.33;7.20;;;8.90;99.90;;;;;;5009225;28;20038;-71
2022/04/06 06:01:11;;;;;;;19.77;7.65;;;9.70;99.90;;;;;;5011514;28;20125;-72
2022/04/06 06:03:37;;;;;;;21.50;7.90;;;8.80;99.90;;;;;;4992564;28;20034;-71
2022/04/06 06:06:03;;;;;;;22.50;8.75;;;8.70;99.90;;;;;;4993764;28;20046;-72
2022/04/06 06:08:28;;;;;;;22.65;7.75;;;8.70;99.90;;;;;;5010631;28;20048;-71
2022/04/06 06:10:55;;;;;;;21.77;7.13;;;8.20;99.90;;;;;;4992403;28;20064;-71
2022/04/06 06:13:21;;;;;;;25.10;8.50;;;8.60;99.90;;;;;;5010401;28;20382;-72
2022/04/06 06:15:47;;;;;;;15.43;6.95;;;8.60;99.90;;;;;;4992070;28;20050;-72
2022/04/06 06:18:13;;;;;;;19.60;8.23;;;8.50;99.90;;;;;;4994575;28;20076;-71
2022/04/06 06:20:38;;;;;;;17.73;7.05;;;8.50;99.90;;;;;;5011106;28;20414;-74
2022/04/06 06:23:04;;;;;;;13.60;6.57;;;8.50;99.90;;;;;;5010149;28;20120;-72
2022/04/06 06:25:30;;;;;;;20.98;6.35;;;8.50;99.90;;;;;;5010362;28;20053;-73
2022/04/06 06:27:56;;;;;;;15.65;5.95;;;8.50;99.90;;;;;;5010496;28;20073;-72
2022/04/06 06:30:21;;;;;;;15.05;6.93;;;8.50;99.90;;;;;;5009215;28;20041;-72
2022/04/06 06:32:47;;;;;;;21.45;6.82;;;8.50;99.90;;;;;;4988465;28;20046;-72
2022/04/06 06:35:13;;;;;;;18.45;6.93;;;8.50;99.90;;;;;;5004925;28;20474;-72
2022/04/06 06:37:47;;;;;;;15.05;6.93;;;9.80;99.90;;;;;;5009726;28;20040;-71
2022/04/06 06:40:13;;;;;;;11.93;5.65;;;8.40;99.90;;;;;;5009612;28;20437;-71
2022/04/06 06:42:39;;;;;;;14.75;6.57;;;8.50;99.90;;;;;;5010037;28;20088;-72
2022/04/06 06:45:05;;;;;;;13.75;6.20;;;8.40;99.90;;;;;;4990889;28;20053;-71
2022/04/06 06:47:30;;;;;;;16.88;6.65;;;8.40;99.90;;;;;;5009091;28;20464;-71
2022/04/06 06:49:56;;;;;;;15.20;6.60;;;8.40;99.90;;;;;;5010272;28;20084;-72
2022/04/06 06:52:21;;;;;;;15.50;7.00;;;8.30;99.90;;;;;;5008678;28;20042;-71
2022/04/06 06:54:47;;;;;;;15.20;6.85;;;8.30;99.90;;;;;;4991727;28;20041;-72
2022/04/06 06:57:13;;;;;;;14.85;7.22;;;8.30;99.90;;;;;;4991997;28;20371;-71
2022/04/06 06:59:38;;;;;;;14.80;5.85;;;8.40;99.90;;;;;;4990118;28;20049;-71
2022/04/06 07:02:04;;;;;;;17.60;6.15;;;8.40;99.90;;;;;;5009987;28;20080;-71
2022/04/06 07:04:30;;;;;;;18.98;6.28;;;8.40;99.90;;;;;;5008838;28;20534;-71
2022/04/06 07:06:55;;;;;;;17.25;6.13;;;8.40;99.90;;;;;;5001379;28;20089;-72
2022/04/06 07:09:21;;;;;;;14.45;5.65;;;8.50;99.90;;;;;;4991362;28;20038;-70
2022/04/06 07:11:46;;;;;;;15.38;5.10;;;8.40;99.90;;;;;;5009549;28;20121;-70
2022/04/06 07:14:12;;;;;;;16.88;5.28;;;8.40;99.90;;;;;;4991690;28;20046;-70
2022/04/06 07:16:38;;;;;;;14.07;4.50;;;8.50;99.90;;;;;;5009794;28;20042;-70
2022/04/06 07:19:03;;;;;;;9.80;4.07;;;8.50;99.90;;;;;;4975460;28;20494;-70
2022/04/06 07:21:29;;;;;;;9.48;3.67;;;8.50;99.90;;;;;;5012030;28;20093;-71
2022/04/06 07:23:55;;;;;;;14.13;4.93;;;8.50;99.90;;;;;;4989110;28;20078;-70
2022/04/06 07:26:22;;;;;;;11.07;4.03;;;8.40;99.90;;;;;;4993291;28;20042;-72
2022/04/06 07:28:47;;;;;;;17.25;4.90;;;8.50;99.90;;;;;;4989593;28;20060;-71
2022/04/06 07:31:14;;;;;;;13.05;4.97;;;8.40;99.90;;;;;;5009442;28;20046;-70
2022/04/06 07:33:40;;;;;;;5.57;3.25;;;8.40;99.90;;;;;;4991224;28;20053;-70
2022/04/06 07:36:09;;;;;;;8.95;4.85;;;8.50;99.90;;;;;;5009128;28;20049;-70
2022/04/06 07:38:34;;;;;;;14.18;4.35;;;8.50;99.90;;;;;;5008471;28;20049;-72
2022/04/06 07:41:00;;;;;;;10.32;4.05;;;8.40;99.90;;;;;;5007991;28;20091;-72
2022/04/06 07:43:26;;;;;;;12.20;4.32;;;9.60;99.90;;;;;;5008493;28;20080;-70
2022/04/06 07:45:52;;;;;;;14.15;4.50;;;8.60;99.90;;;;;;4997039;28;20034;-70
2022/04/06 07:48:22;;;;;;;13.68;4.60;;;8.40;99.90;;;;;;4999408;28;20450;-70
2022/04/06 07:50:48;;;;;;;13.50;4.30;;;8.40;99.90;;;;;;5009213;28;20050;-70
2022/04/06 07:53:14;;;;;;;13.60;4.40;;;8.40;99.90;;;;;;5008234;28;20185;-71
2022/04/06 07:55:39;;;;;;;9.38;3.72;;;8.40;99.90;;;;;;5007970;28;20056;-68
2022/04/06 07:58:05;;;;;;;9.50;3.40;;;8.50;99.90;;;;;;5006727;28;20068;-69
2022/04/06 08:00:33;;;;;;;8.35;3.97;;;8.50;99.90;;;;;;4989477;28;20363;-72
2022/04/06 08:02:59;;;;;;;14.70;5.00;;;8.50;99.90;;;;;;5008261;28;20367;-71
2022/04/06 08:05:25;;;;;;;10.95;4.22;;;8.60;99.90;;;;;;5008597;28;20061;-71
2022/04/06 08:07:53;;;;;;;10.70;4.40;;;8.60;99.90;;;;;;5008544;28;20427;-71
2022/04/06 08:10:22;;;;;;;12.45;4.03;;;8.60;99.90;;;;;;4989739;28;20467;-71
2022/04/06 08:12:48;;;;;;;15.02;4.88;;;8.60;99.90;;;;;;5008072;28;20057;-71
2022/04/06 08:15:15;;;;;;;12.90;4.97;;;8.60;99.90;;;;;;5006606;28;20045;-72
2022/04/06 08:17:46;;;;;;;13.05;4.47;;;8.60;99.90;;;;;;5008560;28;20068;-71
2022/04/06 08:20:13;;;;;;;18.65;4.90;;;8.60;99.90;;;;;;5010241;28;20049;-71
2022/04/06 08:22:40;;;;;;;12.38;4.45;;;8.60;99.90;;;;;;4993704;28;20045;-69
2022/04/06 08:25:06;;;;;;;9.32;4.20;;;8.60;99.90;;;;;;5008102;28;20045;-72
2022/04/06 08:27:36;;;;;;;12.35;4.32;;;8.60;99.90;;;;;;5007922;28;20482;-72
2022/04/06 08:30:03;;;;;;;14.82;4.43;;;8.50;99.90;;;;;;4990700;28;20042;-70
2022/04/06 08:32:30;;;;;;;9.45;4.15;;;8.50;99.90;;;;;;5007661;28;20053;-72
2022/04/06 08:34:55;;;;;;;11.13;4.18;;;8.60;99.90;;;;;;4988499;28;20478;-72
2022/04/06 08:37:21;;;;;;;13.98;4.47;;;8.70;99.90;;;;;;4988401;28;20049;-72
2022/04/06 08:39:46;;;;;;;13.52;4.28;;;8.70;99.90;;;;;;4970758;28;20410;-71
2022/04/06 08:42:14;;;;;;;17.00;4.97;;;8.60;99.90;;;;;;4969719;28;20042;-72
2022/04/06 08:44:39;;;;;;;10.60;4.68;;;8.70;99.90;;;;;;4982215;28;20053;-72
2022/04/06 08:47:06;;;;;;;13.18;5.22;;;9.60;99.90;;;;;;4975869;28;20147;-71
2022/04/06 08:49:35;;;;;;;12.32;4.43;;;8.70;99.90;;;;;;5010649;28;20537;-72
2022/04/06 08:52:03;;;;;;;13.70;4.60;;;9.60;99.90;;;;;;5012021;28;20129;-71
2022/04/06 08:54:29;;;;;;;13.73;4.20;;;8.90;99.90;;;;;;5007319;28;20129;-69
2022/04/06 08:56:55;;;;;;;15.18;5.03;;;8.90;99.90;;;;;;4974000;28;20046;-69
2022/04/06 08:59:21;;;;;;;10.85;3.92;;;9.00;99.90;;;;;;5007055;28;20121;-69
2022/04/06 09:01:47;;;;;;;13.65;4.00;;;9.00;99.90;;;;;;4989940;28;20052;-71
2022/04/06 09:04:13;;;;;;;13.48;4.28;;;9.10;99.90;;;;;;4989804;28;20132;-71
2022/04/06 09:06:44;;;;;;;13.25;4.10;;;10.00;99.90;;;;;;4989446;28;20379;-70
2022/04/06 09:09:11;;;;;;;10.68;3.78;;;9.10;99.90;;;;;;5006322;28;20050;-70
2022/04/06 09:11:44;;;;;;;11.98;4.35;;;10.30;99.90;;;;;;5009313;28;20081;-71
2022/04/06 09:14:10;;;;;;;14.05;3.50;;;9.30;99.90;;;;;;5010132;28;20398;-72
2022/04/06 09:16:36;;;;;;;14.93;3.30;;;9.40;99.90;;;;;;5011428;28;20034;-69
2022/04/06 09:19:13;;;;;;;10.85;3.80;;;9.50;99.90;;;;;;5011422;28;20048;-70
2022/04/06 09:21:46;;;;;;;10.57;3.25;;;9.50;99.90;;;;;;5009521;28;20041;-70
2022/04/06 09:24:17;;;;;;;11.02;3.50;;;9.60;99.90;;;;;;5010554;28;20070;-70
2022/04/06 09:26:43;;;;;;;12.32;3.88;;;9.70;99.90;;;;;;4995661;28;20541;-70
2022/04/06 09:29:15;;;;;;;10.45;3.45;;;9.80;99.90;;;;;;5013365;28;20054;-70
2022/04/06 09:31:41;;;;;;;14.57;4.05;;;9.90;99.90;;;;;;5014084;28;20112;-70
2022/04/06 09:34:10;;;;;;;10.88;3.65;;;10.00;99.90;;;;;;5004697;28;20046;-70
2022/04/06 09:36:38;;;;;;;13.73;4.25;;;10.10;99.90;;;;;;4979614;28;20072;-71
2022/04/06 09:39:05;;;;;;;17.38;4.28;;;10.10;99.90;;;;;;4993442;28;20120;-70
2022/04/06 09:41:31;;;;;;;11.70;3.70;;;10.10;99.90;;;;;;5011618;28;20042;-71
2022/04/06 09:47:38;;;;;;;10.35;3.58;;;10.30;99.90;;;;;;5009745;28;20037;-71
2022/04/06 09:50:14;;;;;;;11.98;4.38;;;10.30;99.90;;;;;;5011262;28;20038;-70
2022/04/06 09:52:42;;;;;;;15.63;3.95;;;10.40;99.90;;;;;;5011001;28;20129;-70
2022/04/06 09:55:13;;;;;;;12.32;3.78;;;10.50;99.90;;;;;;5010507;28;20100;-71
2022/04/06 09:57:41;;;;;;;15.57;4.03;;;10.50;99.90;;;;;;4997574;28;20129;-71
2022/04/06 10:00:08;;;;;;;12.27;3.55;;;10.50;99.90;;;;;;4997013;28;20053;-70
2022/04/06 10:02:35;;;;;;;15.90;4.55;;;10.50;99.90;;;;;;4993778;28;20422;-71
2022/04/06 10:05:02;;;;;;;11.32;3.95;;;10.50;99.90;;;;;;4973948;28;20092;-71
2022/04/06 10:07:29;;;;;;;12.48;4.43;;;10.50;99.90;;;;;;4991673;28;20077;-70
2022/04/06 10:09:59;;;;;;;12.40;4.20;;;10.50;99.90;;;;;;5010906;28;20061;-70
2022/04/06 10:12:26;;;;;;;12.25;4.05;;;10.50;99.90;;;;;;4979392;28;20137;-70
2022/04/06 10:14:56;;;;;;;15.73;4.20;;;10.50;99.90;;;;;;5008996;28;20086;-70
2022/04/06 10:17:23;;;;;;;12.45;4.00;;;10.50;99.90;;;;;;4993672;28;20096;-70
2022/04/06 10:20:05;;;;;;;14.40;4.20;;;10.40;99.90;;;;;;5010465;28;20478;-72
2022/04/06 10:22:43;;;;;;;13.60;4.32;;;10.40;99.90;;;;;;5009212;28;20119;-71
2022/04/06 10:25:25;;;;;;;12.20;4.22;;;10.40;99.90;;;;;;5011171;28;20706;-71
2022/04/06 10:27:53;;;;;;;17.10;4.50;;;10.40;99.90;;;;;;5010303;28;20096;-71
2022/04/06 10:30:23;;;;;;;14.73;4.03;;;10.50;99.90;;;;;;5009596;28;20116;-71
2022/04/06 10:32:50;;;;;;;17.88;4.40;;;11.30;99.90;;;;;;5005364;28;20306;-71
2022/04/06 10:35:37;;;;;;;12.48;4.03;;;10.50;99.90;;;;;;4990127;28;20400;-72
2022/04/06 10:38:03;;;;;;;15.20;4.72;;;10.40;99.90;;;;;;4990165;28;20046;-71
2022/04/06 10:40:43;;;;;;;17.50;4.78;;;10.70;99.90;;;;;;4977066;28;20598;-70
2022/04/06 10:43:34;;;;;;;15.00;4.07;;;10.40;99.90;;;;;;5009272;28;20060;-70
2022/04/06 10:46:00;;;;;;;13.40;4.65;;;10.50;99.90;;;;;;5010285;28;20045;-71
2022/04/06 10:48:26;;;;;;;14.02;4.50;;;10.50;99.90;;;;;;5010359;28;20062;-71
2022/04/06 10:50:53;;;;;;;19.75;5.20;;;11.00;99.90;;;;;;4997772;28;20053;-71
2022/04/06 10:53:18;;;;;;;17.90;5.32;;;10.40;99.90;;;;;;4999300;28;20124;-70
2022/04/06 10:56:12;;;;;;;13.55;4.50;;;10.40;99.90;;;;;;4985389;28;20159;-70
2022/04/06 10:58:56;;;;;;;10.88;4.03;;;11.00;99.90;;;;;;4984962;28;20045;-71
2022/04/06 11:01:26;;;;;;;17.30;5.28;;;10.30;99.90;;;;;;4992241;28;20410;-72
2022/04/06 11:04:04;;;;;;;17.58;5.65;;;10.20;99.90;;;;;;5010838;28;20120;-71
2022/04/06 11:06:48;;;;;;;13.85;5.55;;;9.90;99.90;;;;;;4994862;28;20042;-71
2022/04/06 11:12:25;;;;;;;20.33;5.88;;;10.20;99.90;;;;;;5007984;28;20177;-70
2022/04/06 11:15:11;;;;;;;16.35;5.32;;;10.20;99.90;;;;;;5005893;28;20038;-71
2022/04/06 11:17:38;;;;;;;18.70;5.23;;;10.30;99.90;;;;;;4979625;28;20034;-71
2022/04/06 11:20:16;;;;;;;18.48;5.28;;;10.20;99.90;;;;;;5009150;28;20317;-71
2022/04/06 11:22:53;;;;;;;19.60;5.05;;;10.20;99.90;;;;;;4998892;28;20054;-72
2022/04/06 11:25:21;;;;;;;17.80;5.43;;;10.20;99.90;;;;;;4988673;28;20602;-72
2022/04/06 11:27:48;;;;;;;18.83;5.22;;;10.20;99.90;;;;;;4982304;28;20057;-72
2022/04/06 11:30:18;;;;;;;22.67;5.85;;;10.30;99.90;;;;;;4989720;28;20041;-72
2022/04/06 11:32:53;;;;;;;16.17;5.28;;;10.40;99.90;;;;;;5006986;28;20042;-72
2022/04/06 11:35:19;;;;;;;16.35;5.38;;;10.60;99.90;;;;;;5009514;28;20499;-72
2022/04/06 11:37:49;;;;;;;20.67;5.68;;;10.80;99.90;;;;;;5009818;28;20122;-72
2022/04/06 11:40:17;;;;;;;23.52;5.47;;;11.60;99.90;;;;;;4990868;28;20057;-72
2022/04/06 11:42:48;;;;;;;18.05;5.10;;;12.10;99.90;;;;;;5008735;28;20052;-72
2022/04/06 11:45:20;;;;;;;13.25;3.88;;;13.20;99.90;;;;;;4990820;28;20105;-71
2022/04/06 11:47:53;;;;;;;16.10;4.35;;;12.30;99.90;;;;;;4991025;28;20082;-74
2022/04/06 11:50:19;;;;;;;16.20;4.25;;;12.20;99.90;;;;;;4991504;28;20081;-71
2022/04/06 11:52:45;;;;;;;13.70;4.38;;;12.10;99.90;;;;;;4991072;28;20466;-71
2022/04/06 11:55:11;;;;;;;14.75;4.20;;;12.10;99.90;;;;;;4990817;28;20049;-72
2022/04/06 11:57:45;;;;;;;14.27;3.90;;;12.50;99.90;;;;;;4990131;28;20045;-72
2022/04/06 12:00:13;;;;;;;14.45;3.85;;;13.00;99.90;;;;;;4990214;28;20064;-73
2022/04/06 12:02:49;;;;;;;17.45;4.72;;;13.70;99.90;;;;;;4974972;28;20382;-72
2022/04/06 12:05:15;;;;;;;;;;;14.70;99.90;;;;;;4991556;28;20108;-72
2022/04/06 12:07:40;;;;;;;20.75;4.20;;;15.60;99.90;;;;;;5008284;28;20326;-72
2022/04/06 12:10:07;;;;;;;15.18;3.95;;;15.60;99.90;;;;;;4990062;28;20042;-73
2022/04/06 12:12:36;;;;;;;9.30;3.05;;;15.50;99.90;;;;;;4989703;28;20431;-72
2022/04/06 12:15:06;;;;;;;11.75;3.30;;;16.10;99.90;;;;;;4989718;28;20436;-72
2022/04/06 12:17:33;;;;;;;11.30;3.50;;;15.40;99.90;;;;;;5008496;28;20041;-72
2022/04/06 12:19:59;;;;;;;15.02;3.67;;;15.00;99.90;;;;;;4991224;28;20123;-72
2022/04/06 12:22:26;;;;;;;11.35;3.25;;;14.50;99.90;;;;;;4990509;28;20050;-72
2022/04/06 12:24:52;;;;;;;10.70;3.72;;;14.20;99.90;;;;;;4990385;28;20057;-72
2022/04/06 12:27:29;;;;;;;12.18;3.10;;;13.80;99.90;;;;;;5006583;28;20042;-73
2022/04/06 12:30:09;;;;;;;17.10;3.38;;;13.50;99.90;;;;;;4990083;28;20061;-71
2022/04/06 12:32:45;;;;;;;17.55;3.45;;;13.20;99.90;;;;;;5006534;28;20070;-71
2022/04/06 12:35:23;;;;;;;11.45;3.30;;;13.10;99.90;;;;;;5005161;28;20368;-71
2022/04/06 12:37:50;;;;;;;14.45;3.10;;;13.30;99.90;;;;;;4975210;28;20058;-71
2022/04/06 12:40:23;;;;;;;12.88;3.00;;;14.30;99.90;;;;;;5007695;28;20049;-71
2022/04/06 12:42:49;;;;;;;12.75;2.90;;;13.90;99.90;;;;;;4988908;28;20053;-71
2022/04/06 12:45:15;;;;;;;10.80;3.63;;;14.10;99.90;;;;;;4955229;28;20050;-72
2022/04/06 12:47:41;;;;;;;19.67;3.95;;;13.90;99.90;;;;;;4988587;28;20058;-72
2022/04/06 12:50:21;;;;;;;14.23;4.07;;;13.60;99.90;;;;;;4986476;28;20429;-72
2022/04/06 12:53:12;;;;;;;15.27;3.50;;;13.30;99.90;;;;;;4998926;28;20042;-72
2022/04/06 12:55:38;;;;;;;13.60;3.78;;;13.50;99.90;;;;;;5006334;28;20053;-72
2022/04/06 12:58:15;;;;;;;14.73;3.50;;;13.90;99.90;;;;;;5007152;28;20119;-72